createdAt,value
2018-06-18T00:02:01.360Z,18.10
2018-06-18T00:04:30.415Z,18.20
2018-06-18T00:06:59.481Z,18.20
2018-06-18T00:09:28.568Z,18.30
2018-06-18T00:11:57.635Z,18.30
2018-06-18T00:14:26.706Z,18.40
2018-06-18T00:16:55.767Z,18.50
2018-06-18T00:19:24.828Z,18.30
2018-06-18T00:21:53.955Z,18.20
2018-06-18T00:24:23.027Z,18.00
2018-06-18T00:29:20.779Z,17.70
2018-06-18T00:31:49.862Z,17.60
2018-06-18T00:34:18.929Z,17.50
2018-06-18T00:36:48.009Z,17.40
2018-06-18T00:39:17.087Z,17.30
2018-06-18T00:41:46.172Z,17.30
2018-06-18T00:46:43.912Z,17.20
2018-06-18T00:49:13.027Z,17.30
2018-06-18T00:51:42.087Z,17.30
2018-06-18T00:54:11.173Z,17.30
2018-06-18T00:56:40.241Z,17.20
2018-06-18T00:59:09.314Z,17.20
2018-06-18T01:01:38.441Z,17.30
2018-06-18T01:04:07.481Z,17.30
2018-06-18T01:06:36.543Z,17.20
2018-06-18T01:09:09.853Z,17.10
2018-06-18T01:11:38.911Z,17.10
2018-06-18T01:14:07.988Z,17.20
2018-06-18T01:16:37.070Z,17.20
2018-06-18T01:19:06.135Z,17.20
2018-06-18T01:21:35.191Z,17.10
2018-06-18T01:24:15.935Z,17.10
2018-06-18T01:26:45.146Z,17.00
2018-06-18T01:29:14.204Z,16.90
2018-06-18T01:31:43.275Z,16.80
2018-06-18T01:34:17.167Z,16.80
2018-06-18T01:36:46.230Z,16.90
2018-06-18T01:39:15.317Z,16.90
2018-06-18T01:41:44.780Z,16.80
2018-06-18T01:44:13.863Z,16.80
2018-06-18T01:46:42.952Z,16.70
2018-06-18T01:49:12.084Z,16.60
2018-06-18T01:51:41.149Z,16.60
2018-06-18T01:54:10.222Z,16.60
2018-06-18T01:56:39.303Z,16.50
2018-06-18T01:59:08.359Z,16.50
2018-06-18T02:01:37.800Z,16.50
2018-06-18T02:04:06.863Z,16.40
2018-06-18T02:06:35.933Z,16.40
2018-06-18T02:09:08.204Z,16.30
2018-06-18T02:11:43.126Z,16.20
2018-06-18T02:14:12.341Z,16.10
2018-06-18T02:16:41.411Z,16.10
2018-06-18T02:19:10.498Z,16.10
2018-06-18T02:21:39.925Z,16.00
2018-06-18T02:24:09.010Z,16.00
2018-06-18T02:26:38.079Z,16.00
2018-06-18T02:29:12.567Z,16.00
2018-06-18T02:31:46.975Z,15.90
2018-06-18T02:34:21.478Z,16.00
2018-06-18T02:36:55.835Z,15.90
2018-06-18T02:39:24.902Z,15.90
2018-06-18T02:41:53.981Z,15.90
2018-06-18T02:44:23.072Z,15.90
2018-06-18T02:46:52.205Z,15.90
2018-06-18T02:49:21.274Z,15.90
2018-06-18T02:51:50.375Z,15.90
2018-06-18T02:54:19.455Z,15.90
2018-06-18T02:56:55.951Z,16.00
2018-06-18T02:59:25.075Z,15.90
2018-06-18T03:01:54.168Z,15.90
2018-06-18T03:04:23.231Z,15.90
2018-06-18T03:06:52.313Z,15.90
2018-06-18T03:09:21.389Z,15.80
2018-06-18T03:11:50.455Z,15.80
2018-06-18T03:14:19.740Z,15.80
2018-06-18T03:16:48.804Z,15.80
2018-06-18T03:19:23.459Z,15.70
2018-06-18T03:21:58.054Z,15.80
2018-06-18T03:24:32.450Z,15.70
2018-06-18T03:27:06.902Z,15.60
2018-06-18T03:29:36.714Z,15.70
2018-06-18T03:32:09.433Z,15.60
2018-06-18T03:34:38.514Z,15.70
2018-06-18T03:37:08.925Z,15.70
2018-06-18T03:39:37.989Z,15.80
2018-06-18T03:42:07.488Z,15.90
2018-06-18T03:47:16.553Z,16.20
2018-06-18T03:49:45.651Z,16.30
2018-06-18T03:52:14.737Z,16.60
2018-06-18T03:54:43.952Z,16.80
2018-06-18T03:57:13.008Z,17.00
2018-06-18T03:59:42.116Z,17.10
2018-06-18T04:02:27.003Z,17.30
2018-06-18T04:05:01.920Z,17.50
2018-06-18T04:07:38.147Z,17.70
2018-06-18T04:10:12.615Z,17.90
2018-06-18T04:12:41.715Z,18.00
2018-06-18T04:15:10.808Z,18.20
2018-06-18T04:17:39.957Z,18.20
2018-06-18T04:20:08.983Z,18.30
2018-06-18T04:22:38.088Z,18.40
2018-06-18T04:25:07.191Z,18.50
2018-06-18T04:27:36.295Z,18.50
2018-06-18T04:30:05.449Z,18.50
2018-06-18T04:32:34.512Z,18.50
2018-06-18T04:35:05.923Z,18.50
2018-06-18T04:37:35.092Z,18.60
2018-06-18T04:40:04.540Z,18.60
2018-06-18T04:42:38.883Z,18.60
2018-06-18T04:45:13.268Z,18.50
2018-06-18T04:47:47.688Z,18.50
2018-06-18T04:50:22.130Z,18.40
2018-06-18T04:52:51.195Z,18.40
2018-06-18T04:55:20.296Z,18.30
2018-06-18T04:57:49.395Z,18.30
2018-06-18T05:01:23.726Z,18.40
2018-06-18T05:03:53.246Z,18.50
2018-06-18T05:06:22.702Z,18.60
2018-06-18T05:09:30.101Z,18.70
2018-06-18T05:11:59.165Z,18.70
2018-06-18T05:14:28.259Z,18.80
2018-06-18T05:16:57.364Z,18.70
2018-06-18T05:19:26.404Z,18.80
2018-06-18T05:21:55.470Z,18.70
2018-06-18T05:24:24.547Z,18.60
2018-06-18T05:26:55.140Z,18.60
2018-06-18T05:29:25.728Z,18.70
2018-06-18T05:31:54.876Z,18.80
2018-06-18T05:34:27.203Z,18.80
2018-06-18T05:36:58.710Z,18.90
2018-06-18T05:39:27.780Z,18.90
2018-06-18T05:41:56.852Z,18.80
2018-06-18T05:44:26.007Z,18.70
2018-06-18T05:46:55.046Z,18.60
2018-06-18T05:49:24.133Z,18.60
2018-06-18T05:51:53.202Z,18.70
2018-06-18T05:54:22.432Z,18.80
2018-06-18T05:56:51.475Z,18.90
2018-06-18T05:59:20.581Z,19.00
2018-06-18T06:01:49.685Z,19.00
2018-06-18T06:04:18.744Z,19.00
2018-06-18T06:06:47.851Z,19.00
2018-06-18T06:09:16.882Z,19.20
2018-06-18T06:11:45.999Z,19.40
2018-06-18T06:14:15.055Z,19.60
2018-06-18T06:16:44.118Z,19.70
2018-06-18T06:19:13.194Z,19.90
2018-06-18T06:21:42.324Z,20.00
2018-06-18T06:24:11.438Z,20.20
2018-06-18T06:26:40.549Z,20.20
2018-06-18T06:29:09.693Z,20.20
2018-06-18T06:31:38.788Z,20.30
2018-06-18T06:34:07.912Z,20.30
2018-06-18T06:36:36.955Z,20.40
2018-06-18T06:39:08.115Z,20.50
2018-06-18T06:41:37.374Z,20.60
2018-06-18T06:44:06.468Z,20.70
2018-06-18T06:46:35.574Z,20.70
2018-06-18T06:49:04.684Z,20.60
2018-06-18T06:51:33.750Z,20.50
2018-06-18T06:54:02.943Z,20.50
2018-06-18T06:56:31.980Z,20.50
2018-06-18T06:59:01.257Z,20.40
2018-06-18T07:01:30.355Z,20.60
2018-06-18T07:03:59.447Z,20.90
2018-06-18T07:06:28.513Z,21.30
2018-06-18T07:08:57.595Z,21.50
2018-06-18T07:11:26.681Z,21.70
2018-06-18T07:13:55.775Z,22.10
2018-06-18T07:16:24.825Z,22.20
2018-06-18T07:21:22.563Z,22.60
2018-06-18T07:23:51.642Z,22.50
2018-06-18T07:26:20.803Z,22.40
2018-06-18T07:28:49.895Z,22.40
2018-06-18T07:31:18.999Z,22.30
2018-06-18T07:33:48.141Z,22.20
2018-06-18T07:36:17.235Z,22.30
2018-06-18T07:38:46.291Z,22.50
2018-06-18T07:41:15.464Z,22.50
2018-06-18T07:43:44.575Z,22.50
2018-06-18T07:46:13.663Z,22.30
2018-06-18T07:48:42.751Z,22.20
2018-06-18T07:51:11.835Z,22.40
2018-06-18T07:53:40.927Z,22.70
2018-06-18T07:56:10.014Z,22.90
2018-06-18T07:58:39.063Z,22.90
2018-06-18T08:01:08.162Z,22.90
2018-06-18T08:03:37.239Z,22.80
2018-06-18T08:06:06.331Z,22.40
2018-06-18T08:08:35.388Z,22.20
2018-06-18T08:11:04.476Z,22.10
2018-06-18T08:13:33.567Z,22.10
2018-06-18T08:16:02.662Z,21.90
2018-06-18T08:18:31.750Z,21.90
2018-06-18T08:21:00.845Z,21.90
2018-06-18T08:23:29.913Z,21.80
2018-06-18T08:25:58.999Z,21.70
2018-06-18T08:28:28.095Z,21.60
2018-06-18T08:30:58.000Z,21.50
2018-06-18T08:33:27.095Z,21.70
2018-06-18T08:35:56.191Z,21.80
2018-06-18T08:38:25.276Z,22.00
2018-06-18T08:40:54.438Z,22.30
2018-06-18T08:43:23.849Z,22.30
2018-06-18T08:45:52.903Z,22.10
2018-06-18T08:48:27.455Z,22.30
2018-06-18T08:51:01.983Z,22.20
2018-06-18T08:53:36.467Z,22.20
2018-06-18T08:56:10.947Z,22.30
2018-06-18T08:58:45.395Z,22.40
2018-06-18T09:01:18.331Z,22.60
2018-06-18T09:03:52.487Z,22.90
2018-06-18T09:06:21.872Z,23.20
2018-06-18T09:08:55.192Z,23.40
2018-06-18T09:11:24.467Z,23.70
2018-06-18T09:13:53.767Z,24.30
2018-06-18T09:16:22.839Z,24.50
2018-06-18T09:18:52.293Z,24.70
2018-06-18T09:21:21.471Z,24.80
2018-06-18T09:23:50.565Z,24.60
2018-06-18T09:26:19.630Z,24.60
2018-06-18T09:28:48.754Z,24.40
2018-06-18T09:31:17.821Z,24.00
2018-06-18T09:33:46.891Z,24.00
2018-06-18T09:36:16.004Z,24.20
2018-06-18T09:38:45.067Z,24.50
2018-06-18T09:41:14.105Z,24.80
2018-06-18T09:43:43.175Z,24.70
2018-06-18T09:46:12.342Z,24.50
2018-06-18T09:48:46.806Z,24.50
2018-06-18T09:51:21.399Z,24.40
2018-06-18T09:53:55.956Z,24.60
2018-06-18T09:56:30.519Z,24.70
2018-06-18T09:59:05.076Z,24.50
2018-06-18T10:01:34.449Z,24.70
2018-06-18T10:04:04.684Z,24.20
2018-06-18T10:06:35.779Z,23.90
2018-06-18T10:11:36.275Z,24.00
2018-06-18T10:14:07.104Z,24.10
2018-06-18T10:16:36.262Z,24.30
2018-06-18T10:19:05.305Z,24.10
2018-06-18T10:21:34.373Z,24.10
2018-06-18T10:24:03.478Z,24.20
2018-06-18T10:26:32.546Z,24.30
2018-06-18T10:29:01.632Z,24.20
2018-06-18T10:31:30.716Z,24.30
2018-06-18T10:34:05.354Z,24.50
2018-06-18T10:36:39.818Z,24.60
2018-06-18T10:39:14.436Z,24.70
2018-06-18T10:41:49.011Z,24.80
2018-06-18T10:44:18.063Z,24.90
2018-06-18T10:46:47.140Z,25.10
2018-06-18T10:49:16.205Z,24.90
2018-06-18T10:51:45.288Z,24.90
2018-06-18T10:54:14.423Z,24.70
2018-06-18T10:56:43.489Z,24.70
2018-06-18T10:59:12.543Z,24.90
2018-06-18T11:01:41.667Z,25.00
2018-06-18T11:04:16.140Z,25.10
2018-06-18T11:06:45.207Z,25.60
2018-06-18T11:09:14.291Z,25.60
2018-06-18T11:11:44.378Z,25.30
2018-06-18T11:14:13.486Z,25.00
2018-06-18T11:16:43.034Z,24.70
2018-06-18T11:19:17.404Z,24.10
2018-06-18T11:21:51.938Z,24.00
2018-06-18T11:24:26.686Z,23.80
2018-06-18T11:26:56.491Z,23.90
2018-06-18T11:29:25.901Z,23.60
2018-06-18T11:31:54.986Z,23.50
2018-06-18T11:34:24.075Z,23.70
2018-06-18T11:36:53.216Z,24.10
2018-06-18T11:39:22.091Z,24.60
2018-06-18T11:41:51.245Z,25.00
2018-06-18T11:44:20.270Z,25.40
2018-06-18T11:46:49.350Z,25.50
2018-06-18T11:49:18.435Z,25.60
2018-06-18T11:51:47.585Z,25.80
2018-06-18T11:54:16.643Z,26.00
2018-06-18T11:56:45.720Z,25.90
2018-06-18T11:59:20.235Z,25.90
2018-06-18T12:01:54.882Z,25.90
2018-06-18T12:04:29.364Z,26.00
2018-06-18T12:07:03.823Z,26.30
2018-06-18T12:09:33.994Z,26.50
2018-06-18T12:12:03.075Z,26.80
2018-06-18T12:14:32.143Z,26.80
2018-06-18T12:17:01.221Z,26.90
2018-06-18T12:19:30.290Z,27.00
2018-06-18T12:21:59.387Z,27.00
2018-06-18T12:24:28.524Z,26.60
2018-06-18T12:26:57.612Z,26.10
2018-06-18T12:29:26.681Z,25.60
2018-06-18T12:31:55.788Z,24.80
2018-06-18T12:34:24.875Z,24.30
2018-06-18T12:36:53.957Z,24.20
2018-06-18T12:39:23.021Z,24.30
2018-06-18T12:41:57.487Z,24.40
2018-06-18T12:44:26.612Z,24.60
2018-06-18T12:47:01.121Z,25.10
2018-06-18T12:49:35.754Z,25.20
2018-06-18T12:52:10.207Z,25.10
2018-06-18T12:55:42.464Z,24.90
2018-06-18T12:58:11.587Z,24.90
2018-06-18T13:00:40.643Z,25.50
2018-06-18T13:03:11.698Z,25.80
2018-06-18T13:05:40.791Z,25.60
2018-06-18T13:08:09.839Z,25.30
2018-06-18T13:10:38.939Z,25.00
2018-06-18T13:13:08.036Z,25.10
2018-06-18T13:15:37.119Z,25.30
2018-06-18T13:18:06.372Z,25.80
2018-06-18T13:20:35.507Z,26.50
2018-06-18T13:23:04.578Z,27.00
2018-06-18T13:25:33.648Z,27.30
2018-06-18T13:28:08.256Z,27.40
2018-06-18T13:30:37.344Z,27.30
2018-06-18T13:33:06.415Z,27.60
2018-06-18T13:35:35.515Z,27.60
2018-06-18T13:38:10.052Z,27.60
2018-06-18T13:40:44.545Z,27.80
2018-06-18T13:43:19.099Z,27.80
2018-06-18T13:45:52.402Z,28.00
2018-06-18T13:48:25.812Z,27.90
2018-06-18T13:53:23.564Z,27.10
2018-06-18T13:55:52.694Z,27.00
2018-06-18T13:58:21.590Z,26.90
2018-06-18T14:00:50.439Z,27.00
2018-06-18T14:03:19.216Z,27.10
2018-06-18T14:05:48.063Z,27.20
2018-06-18T14:08:16.855Z,27.30
2018-06-18T14:10:45.879Z,27.40
2018-06-18T14:15:43.167Z,27.40
2018-06-18T14:18:11.955Z,27.40
2018-06-18T14:20:40.773Z,27.40
2018-06-18T14:23:09.684Z,27.20
2018-06-18T14:25:38.493Z,27.40
2018-06-18T14:28:07.679Z,27.60
2018-06-18T14:30:41.835Z,27.60
2018-06-18T14:33:16.293Z,27.50
2018-06-18T14:35:50.582Z,27.70
2018-06-18T14:38:25.021Z,27.80
2018-06-18T14:40:53.854Z,27.80
2018-06-18T14:43:22.721Z,27.30
2018-06-18T14:45:51.603Z,26.80
2018-06-18T14:48:20.414Z,26.50
2018-06-18T14:50:49.455Z,26.50
2018-06-18T14:53:18.516Z,26.80
2018-06-18T14:56:09.450Z,27.00
2018-06-18T14:58:38.699Z,27.20
2018-06-18T15:01:07.755Z,27.40
2018-06-18T15:03:36.854Z,27.40
2018-06-18T15:06:05.920Z,27.60
2018-06-18T15:08:34.972Z,27.30
2018-06-18T15:11:04.020Z,27.40
2018-06-18T15:13:33.108Z,27.40
2018-06-18T15:16:07.651Z,28.20
2018-06-18T15:18:36.745Z,28.90
2018-06-18T15:21:06.204Z,29.20
2018-06-18T15:23:35.270Z,29.40
2018-06-18T15:26:05.847Z,28.80
2018-06-18T15:28:35.128Z,28.40
2018-06-18T15:31:04.178Z,27.80
2018-06-18T15:33:33.226Z,27.60
2018-06-18T15:36:02.315Z,27.30
2018-06-18T15:38:31.497Z,27.00
2018-06-18T15:41:00.443Z,26.90
2018-06-18T15:43:29.524Z,26.90
2018-06-18T15:45:58.679Z,26.90
2018-06-18T15:48:27.773Z,26.70
2018-06-18T15:50:56.870Z,26.80
2018-06-18T15:53:25.950Z,26.70
2018-06-18T15:55:55.045Z,26.70
2018-06-18T15:58:24.112Z,26.40
2018-06-18T16:00:53.158Z,26.20
2018-06-18T16:03:22.223Z,26.20
2018-06-18T16:05:51.298Z,25.90
2018-06-18T16:08:20.362Z,25.60
2018-06-18T16:10:49.455Z,25.60
2018-06-18T16:13:18.546Z,25.70
2018-06-18T16:15:47.609Z,26.00
2018-06-18T16:18:16.700Z,26.20
2018-06-18T16:20:45.781Z,26.40
2018-06-18T16:23:14.859Z,26.90
2018-06-18T16:25:43.954Z,26.90
2018-06-18T16:28:13.034Z,26.90
2018-06-18T16:30:42.117Z,27.20
2018-06-18T16:33:11.163Z,27.30
2018-06-18T16:35:46.738Z,27.40
2018-06-18T16:38:15.806Z,27.60
2018-06-18T16:40:44.887Z,27.20
2018-06-18T16:43:13.967Z,26.80
2018-06-18T16:45:43.093Z,26.70
2018-06-18T16:48:12.152Z,26.50
2018-06-18T16:50:41.379Z,26.00
2018-06-18T16:53:10.452Z,25.80
2018-06-18T16:55:39.607Z,25.70
2018-06-18T16:58:08.817Z,25.50
2018-06-18T17:00:37.843Z,25.30
2018-06-18T17:03:06.919Z,25.10
2018-06-18T17:05:35.993Z,25.00
2018-06-18T17:08:05.160Z,24.80
2018-06-18T17:10:34.294Z,24.60
2018-06-18T17:13:03.378Z,24.40
2018-06-18T17:15:32.474Z,24.30
2018-06-18T17:18:01.530Z,24.30
2018-06-18T17:20:30.636Z,24.30
2018-06-18T17:22:59.703Z,24.00
2018-06-18T17:25:28.779Z,23.90
2018-06-18T17:27:57.898Z,23.70
2018-06-18T17:30:26.965Z,23.70
2018-06-18T17:32:56.052Z,23.70
2018-06-18T17:35:25.113Z,23.70
2018-06-18T17:37:54.217Z,23.60
2018-06-18T17:40:23.279Z,23.70
2018-06-18T17:42:52.619Z,23.70
2018-06-18T17:45:21.701Z,23.70
2018-06-18T17:47:50.763Z,23.80
2018-06-18T17:50:19.985Z,23.60
2018-06-18T17:52:49.076Z,23.50
2018-06-18T17:55:18.172Z,23.50
2018-06-18T17:57:47.407Z,23.50
2018-06-18T18:00:16.491Z,23.50
2018-06-18T18:02:45.631Z,23.50
2018-06-18T18:07:43.400Z,23.20
2018-06-18T18:10:12.484Z,23.20
2018-06-18T18:12:41.583Z,23.10
2018-06-18T18:15:10.674Z,23.00
2018-06-18T18:17:39.772Z,23.00
2018-06-18T18:20:08.818Z,22.90
2018-06-18T18:22:37.872Z,22.80
2018-06-18T18:25:07.003Z,22.80
2018-06-18T18:27:36.076Z,22.80
2018-06-18T18:30:05.225Z,22.80
2018-06-18T18:35:02.938Z,22.70
2018-06-18T18:37:32.011Z,22.60
2018-06-18T18:40:01.079Z,22.60
2018-06-18T18:42:30.181Z,22.40
2018-06-18T18:44:59.268Z,22.30
2018-06-18T18:47:28.322Z,22.30
2018-06-18T18:49:57.399Z,22.30
2018-06-18T18:52:26.537Z,22.20
2018-06-18T18:55:32.873Z,22.00
2018-06-18T18:58:14.639Z,21.90
2018-06-18T19:03:13.962Z,21.70
2018-06-18T19:05:43.099Z,21.70
2018-06-18T19:08:14.571Z,21.60
2018-06-18T19:10:44.653Z,21.60
2018-06-18T19:13:17.280Z,21.60
2018-06-18T19:15:46.822Z,21.70
2018-06-18T19:18:15.900Z,21.70
2018-06-18T19:20:48.519Z,21.70
2018-06-18T19:25:46.646Z,21.80
2018-06-18T19:28:15.706Z,21.90
2018-06-18T19:30:48.022Z,21.90
2018-06-18T19:33:21.505Z,21.90
2018-06-18T19:35:50.623Z,21.90
2018-06-18T19:38:19.701Z,21.90
2018-06-18T19:40:48.782Z,21.90
2018-06-18T19:43:17.892Z,21.90
2018-06-18T19:45:50.506Z,21.90
2018-06-18T19:48:23.492Z,21.90
2018-06-18T19:50:52.597Z,21.80
2018-06-18T19:53:21.719Z,21.80
2018-06-18T19:55:50.803Z,21.70
2018-06-18T19:58:19.835Z,21.60
2018-06-18T20:00:51.749Z,21.50
2018-06-18T20:03:20.889Z,21.50
2018-06-18T20:05:51.476Z,21.50
2018-06-18T20:08:23.577Z,21.50
2018-06-18T20:10:52.754Z,21.40
2018-06-18T20:13:21.882Z,21.40
2018-06-18T20:15:51.162Z,21.30
2018-06-18T20:18:20.262Z,21.30
2018-06-18T20:20:49.359Z,21.30
2018-06-18T20:23:20.775Z,21.30
2018-06-18T20:25:56.927Z,21.30
2018-06-18T20:28:26.123Z,21.30
2018-06-18T20:30:55.183Z,21.30
2018-06-18T20:33:24.727Z,21.30
2018-06-18T20:36:03.500Z,21.30
2018-06-18T20:38:32.649Z,21.30
2018-06-18T20:41:01.744Z,21.30
2018-06-18T20:46:01.625Z,21.30
2018-06-18T20:48:30.891Z,21.20
2018-06-18T20:51:00.103Z,21.20
2018-06-18T20:53:29.288Z,21.10
2018-06-18T20:55:58.460Z,21.00
2018-06-18T20:58:27.614Z,21.00
2018-06-18T21:00:56.698Z,20.90
2018-06-18T21:03:25.788Z,20.90
2018-06-18T21:05:55.198Z,20.90
2018-06-18T21:08:24.277Z,21.00
2018-06-18T21:10:53.363Z,21.00
2018-06-18T21:13:22.499Z,21.00
2018-06-18T21:15:51.625Z,20.90
2018-06-18T21:20:49.423Z,20.90
2018-06-18T21:23:18.623Z,20.80
2018-06-18T21:25:47.687Z,20.80
2018-06-18T21:28:16.852Z,20.70
2018-06-18T21:30:46.080Z,20.70
2018-06-18T21:33:15.206Z,20.70
2018-06-18T21:35:44.310Z,20.70
2018-06-18T21:38:13.440Z,20.80
2018-06-18T21:40:42.538Z,20.80
2018-06-18T21:43:11.621Z,20.80
2018-06-18T21:45:40.698Z,20.90
2018-06-18T21:48:09.866Z,20.90
2018-06-18T21:50:39.005Z,21.00
2018-06-18T21:53:08.098Z,21.00
2018-06-18T21:55:37.200Z,21.00
2018-06-18T21:58:06.787Z,21.00
2018-06-18T22:00:38.617Z,20.90
2018-06-18T22:03:07.688Z,20.90
2018-06-18T22:05:36.907Z,20.80
2018-06-18T22:08:08.179Z,20.70
2018-06-18T22:10:37.267Z,20.60
2018-06-18T22:13:06.371Z,20.60
2018-06-18T22:15:35.503Z,20.60
2018-06-18T22:18:04.844Z,20.60
2018-06-18T22:20:33.935Z,20.60
2018-06-18T22:23:03.113Z,20.70
2018-06-18T22:25:32.205Z,20.70
2018-06-18T22:28:02.351Z,20.80
2018-06-18T22:30:31.460Z,20.80
2018-06-18T22:33:00.525Z,20.80
2018-06-18T22:35:29.584Z,20.70
2018-06-18T22:37:58.639Z,20.70
2018-06-18T22:40:27.770Z,20.70
2018-06-18T22:42:56.827Z,20.60
2018-06-18T22:45:25.925Z,20.60
2018-06-18T22:47:55.009Z,20.50
2018-06-18T22:50:24.229Z,20.40
2018-06-18T22:52:53.324Z,20.40
2018-06-18T22:55:22.423Z,20.30
2018-06-18T22:57:51.572Z,20.30
2018-06-18T23:00:20.716Z,20.30
2018-06-18T23:02:49.808Z,20.20
2018-06-18T23:05:18.917Z,20.20
2018-06-18T23:07:48.007Z,20.20
2018-06-18T23:10:17.103Z,20.20
2018-06-18T23:12:46.162Z,20.30
2018-06-18T23:15:15.400Z,20.30
2018-06-18T23:17:44.526Z,20.40
2018-06-18T23:20:13.599Z,20.40
2018-06-18T23:22:42.675Z,20.40
2018-06-18T23:25:11.782Z,20.50
2018-06-18T23:27:40.851Z,20.50
2018-06-18T23:30:09.963Z,20.50
2018-06-18T23:32:39.134Z,20.50
2018-06-18T23:35:08.233Z,20.50
2018-06-18T23:37:37.295Z,20.60
2018-06-18T23:40:06.394Z,20.60
2018-06-18T23:42:35.510Z,20.60
2018-06-18T23:45:04.731Z,20.60
2018-06-18T23:47:33.939Z,20.60
2018-06-18T23:50:03.008Z,20.50
2018-06-18T23:52:32.099Z,20.50
2018-06-18T23:55:01.185Z,20.40
2018-06-18T23:57:30.335Z,20.20
2018-06-18T23:59:59.477Z,20.10
